createdAt,value
2017-08-29T00:04:57.342Z,15.1
2017-08-29T00:15:11.640Z,14.9
2017-08-29T00:25:27.199Z,14.8
2017-08-29T00:35:41.750Z,14.9
2017-08-29T00:45:57.119Z,14.9
2017-08-29T00:56:11.929Z,15.1
2017-08-29T01:06:26.653Z,14.9
2017-08-29T01:16:42.191Z,14.9
2017-08-29T01:26:56.300Z,14.4
2017-08-29T01:37:10.159Z,14.5
2017-08-29T01:47:24.305Z,14.1
2017-08-29T01:57:40.001Z,14.2
2017-08-29T02:07:53.930Z,14.4
2017-08-29T02:18:08.967Z,14.2
2017-08-29T02:28:22.920Z,13.9
2017-08-29T02:38:38.042Z,14.3
2017-08-29T02:48:52.574Z,14.4
2017-08-29T02:59:07.393Z,14.7
2017-08-29T03:09:22.562Z,14.9
2017-08-29T03:19:38.193Z,14.8
2017-08-29T03:29:52.301Z,14.7
2017-08-29T03:40:07.605Z,14.7
2017-08-29T03:50:21.622Z,14.7
2017-08-29T04:00:35.549Z,14.4
2017-08-29T04:10:50.754Z,14.5
2017-08-29T04:21:04.540Z,14.7
2017-08-29T04:31:19.032Z,14.7
2017-08-29T04:41:34.529Z,14.4
2017-08-29T04:51:49.063Z,14.2
2017-08-29T05:02:04.329Z,14.2
2017-08-29T05:12:19.266Z,14.6
2017-08-29T05:22:34.116Z,14.8
2017-08-29T05:32:48.919Z,14.7
2017-08-29T05:43:04.634Z,14.8
2017-08-29T05:53:18.528Z,15.6
2017-08-29T06:03:33.901Z,16.1
2017-08-29T06:13:49.595Z,16.8
2017-08-29T06:24:05.168Z,17.8
2017-08-29T06:34:19.344Z,18.3
2017-08-29T06:44:33.302Z,18.7
2017-08-29T06:54:48.904Z,19
2017-08-29T07:05:03.875Z,19.5
2017-08-29T07:15:19.127Z,19.9
2017-08-29T07:25:33.274Z,20.4
2017-08-29T07:35:49.005Z,21.9
2017-08-29T07:46:04.206Z,22.7
2017-08-29T07:56:19.193Z,23.8
2017-08-29T08:06:35.026Z,24
2017-08-29T08:16:49.883Z,24.1
2017-08-29T08:27:05.068Z,25
2017-08-29T08:37:19.628Z,24.7
2017-08-29T08:47:35.052Z,25.5
2017-08-29T08:57:50.332Z,26.5
2017-08-29T09:08:05.050Z,26.4
2017-08-29T09:18:19.954Z,27.1
2017-08-29T09:28:35.674Z,27.7
2017-08-29T09:38:50.669Z,27.5
2017-08-29T09:49:05.848Z,29
2017-08-29T09:59:21.164Z,28.1
2017-08-29T10:09:36.553Z,28.7
2017-08-29T10:19:51.535Z,29.1
2017-08-29T10:30:06.625Z,30.6
2017-08-29T10:40:21.487Z,30.2
2017-08-29T10:50:36.897Z,30.7
2017-08-29T11:00:51.593Z,29.9
2017-08-29T11:11:05.593Z,29.7
2017-08-29T11:21:21.077Z,30
2017-08-29T11:31:35.368Z,29.2
2017-08-29T11:41:49.355Z,30.3
2017-08-29T11:52:04.762Z,30.1
2017-08-29T12:02:17.991Z,30.1
2017-08-29T12:12:32.105Z,30.2
2017-08-29T12:22:47.740Z,29.3
2017-08-29T12:33:03.367Z,31
2017-08-29T12:43:19.178Z,30.7
2017-08-29T12:53:34.703Z,31.2
2017-08-29T13:03:48.714Z,31
2017-08-29T13:14:02.938Z,31.7
2017-08-29T13:24:17.266Z,31.6
2017-08-29T13:34:32.399Z,30.9
2017-08-29T13:44:48.240Z,31.9
2017-08-29T13:55:02.391Z,32.1
2017-08-29T14:05:18.128Z,31.9
2017-08-29T14:15:33.651Z,32.2
2017-08-29T14:25:47.994Z,31.6
2017-08-29T14:36:03.249Z,31.8
2017-08-29T14:46:18.233Z,31.3
2017-08-29T14:56:34.549Z,31
2017-08-29T15:06:48.916Z,31.7
2017-08-29T15:17:03.115Z,31.6
2017-08-29T15:27:18.460Z,31.9
2017-08-29T15:37:32.870Z,31
2017-08-29T15:47:47.640Z,30.4
2017-08-29T15:58:03.373Z,30.8
2017-08-29T16:08:17.642Z,30.3
2017-08-29T16:18:32.930Z,30.5
2017-08-29T16:28:47.106Z,29.9
2017-08-29T16:39:01.052Z,29.8
2017-08-29T16:49:16.113Z,29.3
2017-08-29T16:59:31.037Z,29.2
2017-08-29T17:09:46.300Z,28.6
2017-08-29T17:20:00.623Z,27.8
2017-08-29T17:30:14.651Z,26.5
2017-08-29T17:40:28.563Z,25.9
2017-08-29T17:50:43.852Z,25
2017-08-29T18:00:57.742Z,24.6
2017-08-29T18:11:11.633Z,23.7
2017-08-29T18:21:27.163Z,23.3
2017-08-29T18:31:42.345Z,23.5
2017-08-29T18:41:57.490Z,22.9
2017-08-29T18:52:12.322Z,23.1
2017-08-29T19:02:26.794Z,22.4
2017-08-29T19:12:41.116Z,22
2017-08-29T19:22:55.924Z,22.3
2017-08-29T19:33:11.049Z,21.9
2017-08-29T19:43:26.250Z,21.2
2017-08-29T19:53:40.311Z,21.2
2017-08-29T20:03:55.691Z,21
2017-08-29T20:14:11.306Z,20.7
2017-08-29T20:24:25.876Z,20.3
2017-08-29T20:34:39.992Z,20
2017-08-29T20:44:53.779Z,20.3
2017-08-29T20:55:09.521Z,20.2
2017-08-29T21:05:23.882Z,19.9
2017-08-29T21:15:38.019Z,19.3
2017-08-29T21:25:52.373Z,19.1
2017-08-29T21:36:06.483Z,19.4
2017-08-29T21:46:20.749Z,19.5
2017-08-29T21:56:36.087Z,19.4
2017-08-29T22:06:50.614Z,19.3
2017-08-29T22:17:05.049Z,19.4
2017-08-29T22:27:20.344Z,20
2017-08-29T22:37:34.963Z,20.3
2017-08-29T22:47:49.087Z,20.1
2017-08-29T22:58:02.916Z,19.4
2017-08-29T23:08:17.764Z,19.8
2017-08-29T23:18:33.068Z,20
2017-08-29T23:28:47.102Z,19.9
2017-08-29T23:39:01.936Z,20.1
2017-08-29T23:49:17.128Z,20.3
2017-08-29T23:59:30.977Z,19.6
